createdAt,value
2017-07-05T00:00:04.835Z,16.50
2017-07-05T00:01:06.276Z,16.62
2017-07-05T00:02:07.698Z,16.50
2017-07-05T00:03:09.120Z,16.56
2017-07-05T00:04:10.543Z,16.53
2017-07-05T00:05:11.960Z,16.52
2017-07-05T00:06:13.378Z,16.50
2017-07-05T00:07:14.808Z,16.45
2017-07-05T00:08:16.225Z,16.40
2017-07-05T00:09:17.643Z,16.48
2017-07-05T00:10:19.057Z,16.41
2017-07-05T00:11:20.487Z,16.49
2017-07-05T00:12:21.910Z,16.34
2017-07-05T00:13:23.343Z,16.23
2017-07-05T00:14:24.764Z,16.01
2017-07-05T00:15:26.189Z,15.94
2017-07-05T00:16:27.617Z,15.89
2017-07-05T00:17:29.045Z,15.92
2017-07-05T00:18:30.463Z,16.00
2017-07-05T00:19:31.887Z,16.22
2017-07-05T00:20:33.329Z,16.20
2017-07-05T00:21:34.753Z,16.26
2017-07-05T00:22:36.170Z,16.07
2017-07-05T00:23:37.586Z,15.99
2017-07-05T00:24:39.007Z,16.00
2017-07-05T00:25:40.421Z,15.99
2017-07-05T00:26:41.847Z,16.23
2017-07-05T00:27:43.272Z,16.37
2017-07-05T00:28:44.695Z,16.34
2017-07-05T00:29:46.121Z,16.03
2017-07-05T00:30:47.544Z,16.06
2017-07-05T00:31:48.963Z,16.03
2017-07-05T00:32:50.395Z,16.23
2017-07-05T00:33:51.820Z,16.31
2017-07-05T00:34:53.238Z,16.18
2017-07-05T00:35:54.665Z,16.04
2017-07-05T00:36:56.094Z,16.04
2017-07-05T00:37:57.516Z,15.97
2017-07-05T00:38:58.937Z,16.27
2017-07-05T00:40:00.362Z,16.34
2017-07-05T00:41:01.788Z,16.23
2017-07-05T00:42:03.204Z,16.25
2017-07-05T00:43:04.626Z,16.30
2017-07-05T00:44:06.051Z,16.23
2017-07-05T00:45:07.475Z,16.26
2017-07-05T00:46:08.895Z,16.33
2017-07-05T00:47:10.321Z,16.26
2017-07-05T00:48:11.746Z,16.06
2017-07-05T00:49:13.164Z,16.04
2017-07-05T00:50:14.582Z,15.89
2017-07-05T00:51:15.997Z,15.94
2017-07-05T00:52:17.419Z,15.97
2017-07-05T00:53:18.844Z,15.82
2017-07-05T00:54:20.265Z,15.78
2017-07-05T00:55:21.685Z,15.82
2017-07-05T00:56:23.113Z,15.74
2017-07-05T00:57:24.535Z,15.84
2017-07-05T00:58:25.954Z,15.79
2017-07-05T00:59:27.377Z,15.94
2017-07-05T01:00:28.803Z,15.96
2017-07-05T01:01:30.220Z,15.94
2017-07-05T01:02:31.640Z,15.79
2017-07-05T01:03:33.064Z,15.67
2017-07-05T01:04:34.505Z,15.79
2017-07-05T01:05:35.923Z,15.60
2017-07-05T01:06:37.357Z,15.60
2017-07-05T01:07:38.785Z,15.59
2017-07-05T01:08:40.203Z,15.68
2017-07-05T01:09:41.622Z,15.70
2017-07-05T01:10:43.045Z,15.92
2017-07-05T01:11:44.468Z,15.97
2017-07-05T01:12:45.923Z,15.93
2017-07-05T01:13:47.328Z,15.79
2017-07-05T01:14:48.748Z,15.68
2017-07-05T01:15:50.177Z,15.61
2017-07-05T01:16:51.590Z,15.70
2017-07-05T01:17:53.009Z,15.78
2017-07-05T01:18:54.430Z,16.00
2017-07-05T01:19:55.854Z,15.59
2017-07-05T01:20:57.279Z,15.64
2017-07-05T01:21:58.694Z,15.67
2017-07-05T01:23:00.110Z,15.70
2017-07-05T01:24:01.536Z,15.82
2017-07-05T01:25:02.962Z,15.88
2017-07-05T01:26:04.396Z,15.78
2017-07-05T01:27:06.020Z,15.78
2017-07-05T01:28:07.426Z,15.81
2017-07-05T01:29:08.857Z,15.63
2017-07-05T01:30:10.275Z,15.63
2017-07-05T01:31:11.697Z,15.54
2017-07-05T01:32:13.112Z,15.31
2017-07-05T01:33:14.526Z,15.20
2017-07-05T01:34:15.943Z,15.03
2017-07-05T01:35:17.361Z,14.84
2017-07-05T01:36:18.795Z,14.93
2017-07-05T01:37:20.220Z,14.84
2017-07-05T01:38:21.644Z,14.99
2017-07-05T01:39:23.062Z,14.90
2017-07-05T01:40:24.490Z,15.06
2017-07-05T01:41:25.919Z,15.27
2017-07-05T01:42:27.347Z,15.42
2017-07-05T01:43:28.772Z,15.54
2017-07-05T01:44:30.196Z,15.61
2017-07-05T01:45:31.624Z,15.63
2017-07-05T01:46:33.043Z,15.59
2017-07-05T01:47:34.462Z,15.51
2017-07-05T01:48:35.886Z,15.46
2017-07-05T01:49:37.304Z,15.36
2017-07-05T01:50:38.733Z,15.56
2017-07-05T01:51:40.197Z,15.51
2017-07-05T01:52:41.569Z,15.48
2017-07-05T01:53:42.986Z,15.39
2017-07-05T01:54:44.405Z,15.52
2017-07-05T01:55:45.831Z,15.38
2017-07-05T01:56:47.255Z,15.28
2017-07-05T01:57:48.679Z,15.51
2017-07-05T01:58:50.101Z,15.60
2017-07-05T01:59:51.527Z,15.54
2017-07-05T02:00:52.949Z,15.57
2017-07-05T02:01:54.373Z,15.57
2017-07-05T02:02:55.801Z,15.60
2017-07-05T02:03:57.220Z,15.39
2017-07-05T02:04:58.639Z,15.01
2017-07-05T02:06:00.052Z,15.03
2017-07-05T02:07:01.471Z,15.20
2017-07-05T02:08:02.889Z,15.28
2017-07-05T02:09:04.313Z,15.28
2017-07-05T02:10:05.736Z,15.06
2017-07-05T02:11:07.152Z,15.03
2017-07-05T02:12:08.571Z,15.06
2017-07-05T02:13:09.997Z,14.98
2017-07-05T02:14:11.414Z,14.99
2017-07-05T02:15:12.844Z,14.83
2017-07-05T02:16:14.267Z,14.75
2017-07-05T02:17:15.691Z,14.69
2017-07-05T02:18:17.105Z,14.78
2017-07-05T02:19:18.525Z,14.75
2017-07-05T02:20:19.962Z,14.75
2017-07-05T02:21:21.388Z,14.75
2017-07-05T02:22:22.803Z,14.84
2017-07-05T02:23:24.225Z,14.95
2017-07-05T02:24:25.660Z,15.05
2017-07-05T02:25:27.087Z,15.27
2017-07-05T02:26:28.521Z,15.21
2017-07-05T02:27:29.985Z,15.13
2017-07-05T02:28:31.406Z,15.20
2017-07-05T02:29:32.822Z,15.20
2017-07-05T02:30:34.340Z,15.26
2017-07-05T02:31:35.785Z,15.12
2017-07-05T02:32:37.236Z,15.21
2017-07-05T02:33:38.653Z,15.52
2017-07-05T02:34:40.081Z,15.36
2017-07-05T02:35:41.509Z,15.43
2017-07-05T02:36:42.933Z,15.48
2017-07-05T02:37:44.445Z,15.35
2017-07-05T02:38:45.872Z,15.28
2017-07-05T02:39:47.297Z,15.20
2017-07-05T02:40:48.724Z,15.06
2017-07-05T02:41:50.151Z,15.06
2017-07-05T02:42:51.576Z,14.99
2017-07-05T02:43:52.996Z,15.03
2017-07-05T02:44:54.422Z,15.12
2017-07-05T02:45:55.854Z,15.33
2017-07-05T02:46:57.265Z,15.35
2017-07-05T02:47:58.682Z,15.21
2017-07-05T02:49:00.109Z,15.15
2017-07-05T02:50:01.527Z,15.28
2017-07-05T02:51:02.950Z,15.36
2017-07-05T02:52:04.363Z,15.42
2017-07-05T02:53:05.787Z,15.27
2017-07-05T02:54:07.203Z,15.06
2017-07-05T02:55:08.621Z,14.99
2017-07-05T02:56:10.045Z,15.06
2017-07-05T02:57:11.477Z,15.02
2017-07-05T02:58:12.894Z,15.06
2017-07-05T02:59:14.317Z,15.15
2017-07-05T03:00:15.735Z,15.26
2017-07-05T03:01:17.158Z,15.05
2017-07-05T03:02:18.577Z,15.19
2017-07-05T03:03:19.992Z,15.43
2017-07-05T03:04:21.420Z,15.57
2017-07-05T03:05:22.840Z,15.52
2017-07-05T03:06:24.264Z,15.52
2017-07-05T03:07:25.681Z,15.26
2017-07-05T03:08:27.106Z,15.23
2017-07-05T03:09:28.533Z,15.13
2017-07-05T03:10:29.957Z,14.99
2017-07-05T03:11:31.371Z,15.01
2017-07-05T03:12:32.793Z,15.03
2017-07-05T03:13:34.219Z,14.80
2017-07-05T03:14:35.660Z,14.87
2017-07-05T03:15:37.080Z,14.80
2017-07-05T03:16:38.519Z,14.84
2017-07-05T03:17:39.927Z,14.87
2017-07-05T03:18:41.351Z,14.87
2017-07-05T03:19:42.775Z,14.90
2017-07-05T03:20:44.197Z,14.95
2017-07-05T03:21:45.620Z,14.90
2017-07-05T03:22:47.048Z,14.95
2017-07-05T03:23:48.479Z,14.88
2017-07-05T03:24:49.903Z,14.87
2017-07-05T03:25:51.324Z,15.11
2017-07-05T03:26:52.744Z,15.20
2017-07-05T03:27:54.177Z,15.38
2017-07-05T03:28:55.666Z,15.42
2017-07-05T03:29:57.088Z,15.56
2017-07-05T03:30:58.519Z,15.54
2017-07-05T03:32:00.004Z,15.59
2017-07-05T03:33:01.437Z,15.39
2017-07-05T03:34:02.857Z,15.26
2017-07-05T03:35:04.350Z,15.27
2017-07-05T03:36:05.786Z,15.41
2017-07-05T03:37:07.204Z,15.46
2017-07-05T03:38:08.633Z,15.39
2017-07-05T03:39:10.110Z,15.36
2017-07-05T03:40:11.564Z,15.31
2017-07-05T03:41:12.982Z,15.23
2017-07-05T03:42:14.398Z,15.02
2017-07-05T03:43:15.820Z,15.02
2017-07-05T03:44:17.241Z,14.91
2017-07-05T03:45:18.658Z,14.84
2017-07-05T03:46:20.087Z,14.90
2017-07-05T03:47:21.504Z,14.78
2017-07-05T03:48:22.935Z,14.74
2017-07-05T03:49:24.353Z,14.60
2017-07-05T03:50:25.781Z,14.62
2017-07-05T03:51:27.209Z,14.78
2017-07-05T03:52:28.635Z,15.02
2017-07-05T03:53:30.057Z,14.98
2017-07-05T03:54:31.481Z,14.75
2017-07-05T03:55:32.910Z,14.68
2017-07-05T03:56:34.337Z,14.56
2017-07-05T03:57:35.756Z,14.65
2017-07-05T03:58:37.188Z,14.87
2017-07-05T03:59:38.620Z,14.86
2017-07-05T04:00:40.054Z,14.95
2017-07-05T04:01:41.490Z,14.98
2017-07-05T04:02:42.914Z,14.94
2017-07-05T04:03:44.336Z,14.94
2017-07-05T04:04:45.767Z,14.84
2017-07-05T04:05:47.188Z,14.67
2017-07-05T04:06:48.620Z,14.94
2017-07-05T04:07:50.051Z,15.05
2017-07-05T04:08:51.469Z,15.11
2017-07-05T04:09:52.890Z,15.08
2017-07-05T04:10:54.319Z,15.15
2017-07-05T04:11:55.749Z,15.15
2017-07-05T04:12:57.170Z,15.20
2017-07-05T04:13:58.605Z,15.01
2017-07-05T04:15:00.029Z,15.23
2017-07-05T04:16:01.455Z,15.06
2017-07-05T04:17:02.877Z,15.20
2017-07-05T04:18:04.320Z,15.23
2017-07-05T04:19:05.747Z,15.20
2017-07-05T04:20:07.174Z,15.24
2017-07-05T04:21:08.595Z,15.23
2017-07-05T04:22:10.021Z,15.19
2017-07-05T04:23:11.441Z,15.23
2017-07-05T04:24:12.876Z,15.15
2017-07-05T04:25:14.299Z,15.03
2017-07-05T04:26:15.728Z,14.98
2017-07-05T04:27:17.148Z,15.08
2017-07-05T04:28:18.564Z,14.99
2017-07-05T04:29:19.994Z,14.99
2017-07-05T04:30:21.432Z,14.95
2017-07-05T04:31:22.869Z,15.02
2017-07-05T04:32:24.331Z,15.05
2017-07-05T04:33:25.758Z,15.03
2017-07-05T04:34:27.187Z,15.09
2017-07-05T04:35:28.606Z,15.02
2017-07-05T04:36:30.036Z,15.15
2017-07-05T04:37:31.464Z,15.27
2017-07-05T04:38:32.886Z,15.48
2017-07-05T04:39:34.312Z,15.41
2017-07-05T04:40:35.736Z,15.54
2017-07-05T04:41:37.156Z,15.51
2017-07-05T04:42:38.581Z,15.56
2017-07-05T04:43:40.006Z,15.61
2017-07-05T04:44:41.437Z,15.64
2017-07-05T04:45:42.863Z,15.54
2017-07-05T04:46:44.291Z,15.57
2017-07-05T04:47:45.717Z,15.54
2017-07-05T04:48:47.132Z,15.57
2017-07-05T04:49:48.559Z,15.57
2017-07-05T04:50:49.984Z,15.64
2017-07-05T04:51:51.405Z,15.74
2017-07-05T04:52:52.830Z,15.66
2017-07-05T04:53:54.253Z,15.82
2017-07-05T04:54:55.671Z,15.79
2017-07-05T04:55:57.100Z,15.79
2017-07-05T04:56:58.527Z,15.99
2017-07-05T04:57:59.955Z,16.00
2017-07-05T04:59:01.377Z,16.11
2017-07-05T05:00:02.798Z,16.00
2017-07-05T05:01:04.222Z,16.11
2017-07-05T05:02:05.645Z,16.16
2017-07-05T05:03:07.068Z,16.22
2017-07-05T05:04:08.489Z,16.25
2017-07-05T05:05:09.918Z,16.16
2017-07-05T05:06:11.340Z,16.26
2017-07-05T05:07:12.770Z,16.44
2017-07-05T05:08:14.194Z,16.35
2017-07-05T05:09:15.608Z,16.45
2017-07-05T05:10:17.038Z,16.42
2017-07-05T05:11:18.459Z,16.34
2017-07-05T05:12:19.893Z,16.59
2017-07-05T05:13:21.320Z,16.67
2017-07-05T05:14:22.738Z,16.88
2017-07-05T05:15:24.161Z,16.99
2017-07-05T05:16:25.583Z,17.04
2017-07-05T05:17:27.010Z,17.10
2017-07-05T05:18:28.429Z,17.07
2017-07-05T05:19:29.859Z,16.95
2017-07-05T05:20:31.276Z,16.98
2017-07-05T05:21:32.704Z,16.93
2017-07-05T05:22:34.137Z,16.80
2017-07-05T05:23:35.567Z,16.77
2017-07-05T05:24:36.993Z,16.81
2017-07-05T05:25:38.417Z,16.83
2017-07-05T05:26:39.843Z,16.81
2017-07-05T05:27:41.268Z,16.86
2017-07-05T05:28:42.709Z,17.04
2017-07-05T05:29:44.135Z,16.98
2017-07-05T05:30:45.562Z,16.95
2017-07-05T05:31:46.987Z,17.06
2017-07-05T05:32:48.448Z,16.98
2017-07-05T05:33:49.877Z,17.10
2017-07-05T05:34:51.309Z,17.10
2017-07-05T05:35:53.344Z,17.07
2017-07-05T05:36:54.767Z,17.10
2017-07-05T05:37:56.202Z,17.15
2017-07-05T05:38:57.629Z,17.40
2017-07-05T05:39:59.054Z,17.26
2017-07-05T05:41:00.474Z,17.41
2017-07-05T05:42:01.896Z,17.33
2017-07-05T05:43:03.326Z,17.44
2017-07-05T05:44:04.759Z,17.51
2017-07-05T05:45:06.181Z,17.63
2017-07-05T05:46:07.603Z,17.64
2017-07-05T05:47:09.028Z,17.71
2017-07-05T05:48:10.448Z,17.78
2017-07-05T05:49:11.872Z,17.82
2017-07-05T05:50:13.301Z,17.67
2017-07-05T05:51:14.737Z,17.84
2017-07-05T05:52:16.158Z,17.89
2017-07-05T05:53:17.584Z,17.91
2017-07-05T05:54:19.021Z,17.89
2017-07-05T05:55:20.440Z,17.99
2017-07-05T05:56:21.869Z,18.02
2017-07-05T05:57:23.300Z,18.03
2017-07-05T05:58:24.728Z,18.02
2017-07-05T05:59:26.151Z,18.12
2017-07-05T06:00:27.585Z,18.17
2017-07-05T06:01:29.006Z,18.24
2017-07-05T06:02:30.434Z,18.36
2017-07-05T06:03:31.861Z,18.42
2017-07-05T06:04:33.295Z,18.46
2017-07-05T06:05:34.717Z,18.50
2017-07-05T06:06:36.163Z,18.62
2017-07-05T06:07:37.590Z,18.65
2017-07-05T06:08:39.012Z,18.64
2017-07-05T06:09:40.442Z,18.68
2017-07-05T06:10:41.868Z,18.73
2017-07-05T06:11:43.289Z,18.84
2017-07-05T06:12:44.724Z,18.90
2017-07-05T06:13:46.168Z,18.99
2017-07-05T06:14:47.584Z,19.01
2017-07-05T06:15:49.015Z,19.05
2017-07-05T06:16:50.456Z,19.10
2017-07-05T06:17:51.884Z,19.14
2017-07-05T06:18:53.308Z,19.11
2017-07-05T06:19:54.728Z,19.28
2017-07-05T06:20:56.155Z,19.31
2017-07-05T06:21:57.584Z,19.32
2017-07-05T06:22:59.012Z,19.36
2017-07-05T06:24:00.440Z,19.47
2017-07-05T06:25:01.863Z,19.46
2017-07-05T06:26:03.326Z,19.42
2017-07-05T06:27:04.761Z,19.58
2017-07-05T06:28:06.200Z,19.54
2017-07-05T06:29:07.624Z,19.61
2017-07-05T06:30:09.050Z,19.68
2017-07-05T06:31:10.469Z,19.76
2017-07-05T06:32:11.899Z,19.91
2017-07-05T06:33:13.330Z,19.87
2017-07-05T06:34:14.747Z,19.97
2017-07-05T06:35:16.171Z,19.98
2017-07-05T06:36:17.602Z,20.02
2017-07-05T06:37:19.031Z,20.08
2017-07-05T06:38:20.465Z,20.08
2017-07-05T06:39:21.896Z,20.10
2017-07-05T06:40:23.320Z,20.06
2017-07-05T06:41:24.745Z,20.16
2017-07-05T06:42:26.175Z,20.23
2017-07-05T06:43:27.598Z,20.24
2017-07-05T06:44:29.024Z,20.21
2017-07-05T06:45:30.443Z,20.24
2017-07-05T06:46:31.872Z,20.35
2017-07-05T06:47:33.296Z,20.41
2017-07-05T06:48:34.723Z,20.47
2017-07-05T06:49:36.154Z,20.51
2017-07-05T06:50:37.577Z,20.47
2017-07-05T06:51:39.006Z,20.58
2017-07-05T06:52:40.437Z,20.59
2017-07-05T06:53:41.883Z,20.65
2017-07-05T06:54:43.314Z,20.58
2017-07-05T06:55:44.742Z,20.66
2017-07-05T06:56:46.169Z,20.59
2017-07-05T06:57:47.601Z,20.76
2017-07-05T06:58:49.030Z,20.76
2017-07-05T06:59:50.458Z,20.68
2017-07-05T07:00:51.893Z,20.83
2017-07-05T07:01:53.318Z,20.96
2017-07-05T07:02:54.738Z,20.93
2017-07-05T07:03:56.169Z,20.96
2017-07-05T07:04:57.599Z,20.98
2017-07-05T07:05:59.030Z,21.02
2017-07-05T07:07:00.451Z,21.01
2017-07-05T07:08:01.881Z,21.04
2017-07-05T07:09:03.310Z,21.09
2017-07-05T07:10:04.742Z,21.17
2017-07-05T07:11:06.162Z,21.08
2017-07-05T07:12:07.587Z,21.01
2017-07-05T07:13:09.016Z,21.08
2017-07-05T07:14:10.451Z,21.09
2017-07-05T07:15:11.904Z,21.13
2017-07-05T07:16:13.329Z,21.20
2017-07-05T07:17:14.762Z,21.32
2017-07-05T07:18:16.188Z,21.35
2017-07-05T07:19:17.617Z,21.46
2017-07-05T07:20:19.042Z,21.48
2017-07-05T07:21:20.463Z,21.42
2017-07-05T07:22:21.904Z,21.45
2017-07-05T07:23:23.344Z,21.45
2017-07-05T07:24:24.783Z,21.53
2017-07-05T07:25:26.236Z,21.53
2017-07-05T07:26:27.670Z,21.61
2017-07-05T07:27:29.093Z,21.61
2017-07-05T07:28:30.515Z,21.60
2017-07-05T07:29:31.953Z,21.60
2017-07-05T07:30:33.383Z,21.75
2017-07-05T07:31:34.817Z,21.75
2017-07-05T07:32:36.250Z,21.82
2017-07-05T07:33:37.678Z,21.82
2017-07-05T07:34:39.115Z,21.92
2017-07-05T07:35:40.547Z,21.95
2017-07-05T07:36:41.982Z,22.02
2017-07-05T07:37:43.410Z,22.22
2017-07-05T07:38:44.839Z,22.28
2017-07-05T07:39:46.280Z,22.25
2017-07-05T07:40:47.712Z,22.27
2017-07-05T07:41:49.143Z,22.19
2017-07-05T07:42:50.570Z,22.20
2017-07-05T07:43:52.001Z,22.23
2017-07-05T07:44:53.428Z,22.28
2017-07-05T07:45:54.862Z,22.22
2017-07-05T07:46:56.293Z,22.27
2017-07-05T07:47:57.723Z,22.28
2017-07-05T07:48:59.158Z,22.22
2017-07-05T07:50:00.592Z,22.31
2017-07-05T07:51:02.021Z,22.39
2017-07-05T07:52:03.452Z,22.28
2017-07-05T07:53:04.883Z,22.23
2017-07-05T07:54:06.309Z,22.14
2017-07-05T07:55:07.739Z,22.20
2017-07-05T07:56:09.174Z,22.17
2017-07-05T07:57:10.598Z,22.29
2017-07-05T07:58:12.026Z,22.25
2017-07-05T07:59:14.618Z,22.41
2017-07-05T08:00:16.057Z,22.49
2017-07-05T08:01:17.479Z,22.54
2017-07-05T08:02:18.909Z,22.37
2017-07-05T08:03:20.338Z,22.41
2017-07-05T08:04:21.763Z,22.37
2017-07-05T08:05:23.188Z,22.43
2017-07-05T08:06:24.611Z,22.41
2017-07-05T08:07:26.047Z,22.32
2017-07-05T08:08:27.480Z,22.27
2017-07-05T08:09:28.902Z,22.25
2017-07-05T08:10:30.340Z,22.44
2017-07-05T08:11:31.780Z,22.50
2017-07-05T08:12:33.206Z,22.47
2017-07-05T08:13:34.640Z,22.68
2017-07-05T08:14:36.106Z,22.77
2017-07-05T08:15:37.506Z,22.83
2017-07-05T08:16:38.939Z,22.83
2017-07-05T08:17:40.372Z,22.77
2017-07-05T08:18:41.799Z,22.87
2017-07-05T08:19:43.231Z,22.74
2017-07-05T08:20:44.654Z,22.75
2017-07-05T08:21:46.088Z,22.77
2017-07-05T08:22:47.528Z,22.75
2017-07-05T08:23:48.954Z,22.75
2017-07-05T08:24:50.380Z,22.86
2017-07-05T08:25:51.814Z,22.75
2017-07-05T08:26:53.310Z,22.90
2017-07-05T08:27:54.760Z,22.89
2017-07-05T08:28:56.195Z,22.99
2017-07-05T08:29:57.622Z,22.96
2017-07-05T08:30:59.056Z,22.78
2017-07-05T08:32:00.484Z,22.97
2017-07-05T08:33:01.910Z,23.04
2017-07-05T08:34:03.341Z,23.22
2017-07-05T08:35:04.772Z,23.23
2017-07-05T08:36:06.201Z,23.35
2017-07-05T08:37:07.636Z,23.22
2017-07-05T08:38:09.063Z,23.29
2017-07-05T08:39:10.490Z,23.50
2017-07-05T08:40:11.926Z,23.45
2017-07-05T08:41:13.366Z,23.52
2017-07-05T08:42:14.790Z,23.75
2017-07-05T08:43:16.218Z,23.58
2017-07-05T08:44:17.645Z,23.47
2017-07-05T08:45:19.068Z,23.58
2017-07-05T08:46:20.502Z,23.67
2017-07-05T08:47:21.933Z,23.47
2017-07-05T08:48:23.359Z,23.49
2017-07-05T08:49:24.797Z,23.39
2017-07-05T08:50:26.219Z,23.49
2017-07-05T08:51:27.654Z,23.50
2017-07-05T08:52:29.091Z,23.65
2017-07-05T08:53:30.525Z,23.47
2017-07-05T08:54:31.962Z,23.34
2017-07-05T08:55:33.394Z,23.40
2017-07-05T08:56:34.825Z,23.52
2017-07-05T08:57:36.313Z,23.61
2017-07-05T08:58:37.758Z,23.53
2017-07-05T08:59:39.200Z,23.47
2017-07-05T09:00:40.638Z,23.46
2017-07-05T09:01:42.067Z,23.38
2017-07-05T09:02:43.501Z,23.53
2017-07-05T09:03:44.990Z,23.70
2017-07-05T09:04:46.401Z,23.72
2017-07-05T09:05:47.841Z,23.83
2017-07-05T09:06:49.272Z,24.00
2017-07-05T09:07:50.704Z,24.02
2017-07-05T09:08:52.169Z,24.07
2017-07-05T09:09:53.659Z,24.01
2017-07-05T09:10:55.096Z,24.00
2017-07-05T09:11:56.524Z,24.13
2017-07-05T09:12:57.955Z,24.24
2017-07-05T09:13:59.385Z,24.37
2017-07-05T09:15:00.819Z,24.50
2017-07-05T09:16:02.253Z,24.37
2017-07-05T09:17:03.698Z,24.50
2017-07-05T09:18:05.119Z,24.49
2017-07-05T09:19:06.551Z,24.63
2017-07-05T09:20:07.988Z,24.53
2017-07-05T09:21:09.432Z,24.45
2017-07-05T09:22:10.862Z,24.44
2017-07-05T09:23:12.297Z,24.45
2017-07-05T09:24:13.735Z,24.38
2017-07-05T09:25:15.173Z,24.14
2017-07-05T09:26:16.621Z,23.90
2017-07-05T09:27:18.252Z,23.85
2017-07-05T09:28:19.687Z,23.79
2017-07-05T09:29:21.117Z,23.67
2017-07-05T09:30:22.551Z,23.71
2017-07-05T09:31:23.994Z,23.86
2017-07-05T09:32:25.425Z,23.89
2017-07-05T09:33:28.098Z,23.65
2017-07-05T09:34:30.685Z,23.62
2017-07-05T09:35:32.559Z,23.65
2017-07-05T09:36:33.994Z,23.86
2017-07-05T09:37:35.430Z,23.75
2017-07-05T09:38:36.870Z,23.70
2017-07-05T09:39:38.303Z,23.76
2017-07-05T09:40:39.748Z,23.86
2017-07-05T09:41:41.175Z,23.86
2017-07-05T09:42:42.607Z,23.83
2017-07-05T09:43:44.039Z,23.83
2017-07-05T09:44:45.468Z,23.68
2017-07-05T09:45:46.901Z,23.72
2017-07-05T09:46:48.340Z,23.53
2017-07-05T09:47:49.789Z,23.67
2017-07-05T09:48:51.232Z,23.67
2017-07-05T09:49:52.665Z,23.55
2017-07-05T09:50:54.100Z,23.57
2017-07-05T09:51:55.532Z,23.50
2017-07-05T09:52:56.960Z,23.50
2017-07-05T09:53:58.400Z,23.49
2017-07-05T09:54:59.854Z,23.65
2017-07-05T09:56:01.293Z,23.87
2017-07-05T09:57:02.735Z,24.24
2017-07-05T09:58:05.443Z,24.41
2017-07-05T09:59:06.878Z,24.44
2017-07-05T10:00:08.312Z,24.63
2017-07-05T10:01:09.740Z,24.61
2017-07-05T10:02:11.173Z,24.75
2017-07-05T10:03:12.609Z,24.82
2017-07-05T10:04:14.034Z,24.95
2017-07-05T10:05:15.465Z,24.88
2017-07-05T10:06:16.898Z,24.94
2017-07-05T10:07:18.337Z,24.87
2017-07-05T10:08:19.849Z,24.44
2017-07-05T10:09:21.280Z,24.59
2017-07-05T10:10:22.709Z,24.59
2017-07-05T10:11:24.150Z,24.52
2017-07-05T10:12:25.610Z,24.50
2017-07-05T10:13:27.047Z,24.38
2017-07-05T10:14:28.487Z,24.38
2017-07-05T10:15:29.922Z,24.47
2017-07-05T10:16:31.352Z,24.45
2017-07-05T10:17:32.781Z,24.17
2017-07-05T10:18:34.273Z,24.34
2017-07-05T10:19:35.751Z,24.52
2017-07-05T10:20:37.180Z,24.56
2017-07-05T10:21:38.612Z,24.69
2017-07-05T10:22:40.059Z,24.76
2017-07-05T10:23:41.497Z,24.82
2017-07-05T10:24:42.939Z,24.75
2017-07-05T10:25:44.378Z,24.47
2017-07-05T10:26:45.863Z,24.47
2017-07-05T10:27:47.289Z,24.44
2017-07-05T10:28:48.724Z,24.31
2017-07-05T10:29:50.198Z,24.23
2017-07-05T10:30:51.636Z,24.16
2017-07-05T10:31:53.068Z,24.20
2017-07-05T10:32:54.506Z,24.16
2017-07-05T10:33:55.937Z,24.02
2017-07-05T10:34:57.377Z,24.02
2017-07-05T10:35:58.812Z,24.19
2017-07-05T10:37:00.291Z,24.39
2017-07-05T10:38:01.721Z,24.79
2017-07-05T10:39:03.147Z,24.97
2017-07-05T10:40:04.578Z,25.27
2017-07-05T10:41:06.011Z,25.37
2017-07-05T10:42:07.450Z,25.57
2017-07-05T10:43:08.877Z,25.72
2017-07-05T10:44:10.318Z,25.99
2017-07-05T10:45:11.760Z,26.09
2017-07-05T10:46:13.190Z,26.24
2017-07-05T10:47:14.619Z,26.35
2017-07-05T10:48:16.173Z,26.24
2017-07-05T10:49:17.612Z,26.55
2017-07-05T10:50:19.039Z,26.47
2017-07-05T10:51:20.473Z,26.49
2017-07-05T10:52:21.904Z,26.27
2017-07-05T10:53:23.346Z,26.22
2017-07-05T10:54:24.781Z,26.57
2017-07-05T10:55:26.211Z,26.77
2017-07-05T10:56:27.704Z,26.81
2017-07-05T10:57:29.141Z,26.69
2017-07-05T10:58:30.571Z,26.86
2017-07-05T10:59:32.008Z,26.76
2017-07-05T11:00:33.437Z,26.89
2017-07-05T11:01:34.891Z,26.83
2017-07-05T11:02:36.334Z,26.98
2017-07-05T11:03:37.777Z,27.11
2017-07-05T11:04:39.210Z,27.06
2017-07-05T11:05:40.641Z,27.17
2017-07-05T11:06:42.074Z,26.81
2017-07-05T11:07:43.591Z,26.72
2017-07-05T11:08:45.032Z,26.86
2017-07-05T11:09:46.509Z,27.06
2017-07-05T11:10:47.945Z,27.24
2017-07-05T11:11:49.381Z,27.36
2017-07-05T11:12:50.814Z,27.54
2017-07-05T11:13:52.245Z,27.42
2017-07-05T11:14:53.706Z,27.21
2017-07-05T11:15:55.159Z,27.32
2017-07-05T11:16:56.565Z,27.39
2017-07-05T11:17:57.999Z,27.46
2017-07-05T11:18:59.434Z,27.28
2017-07-05T11:20:00.869Z,27.09
2017-07-05T11:21:02.305Z,26.76
2017-07-05T11:22:03.834Z,26.74
2017-07-05T11:23:05.268Z,26.81
2017-07-05T11:24:06.703Z,26.99
2017-07-05T11:25:08.139Z,27.09
2017-07-05T11:26:10.678Z,27.11
2017-07-05T11:27:12.162Z,27.13
2017-07-05T11:28:13.595Z,27.20
2017-07-05T11:29:15.030Z,27.21
2017-07-05T11:30:16.472Z,27.26
2017-07-05T11:31:17.913Z,27.39
2017-07-05T11:32:19.358Z,27.04
2017-07-05T11:33:20.793Z,26.83
2017-07-05T11:34:22.234Z,26.86
2017-07-05T11:35:23.673Z,26.87
2017-07-05T11:36:25.109Z,26.77
2017-07-05T11:37:26.549Z,26.52
2017-07-05T11:38:27.981Z,26.46
2017-07-05T11:39:29.414Z,26.31
2017-07-05T11:40:30.850Z,26.46
2017-07-05T11:41:32.289Z,26.39
2017-07-05T11:42:33.720Z,26.25
2017-07-05T11:43:35.168Z,25.99
2017-07-05T11:44:36.604Z,26.01
2017-07-05T11:45:38.038Z,26.15
2017-07-05T11:46:39.473Z,26.28
2017-07-05T11:47:40.953Z,25.97
2017-07-05T11:48:42.330Z,25.93
2017-07-05T11:49:43.779Z,25.89
2017-07-05T11:50:45.213Z,25.82
2017-07-05T11:51:46.644Z,25.86
2017-07-05T11:52:48.079Z,25.80
2017-07-05T11:53:49.511Z,25.99
2017-07-05T11:54:50.942Z,26.31
2017-07-05T11:55:52.436Z,26.59
2017-07-05T11:56:53.876Z,26.37
2017-07-05T11:57:55.317Z,26.65
2017-07-05T11:58:56.748Z,26.46
2017-07-05T11:59:58.246Z,25.97
2017-07-05T12:00:59.676Z,25.99
2017-07-05T12:02:01.108Z,26.15
2017-07-05T12:03:02.543Z,26.47
2017-07-05T12:04:03.974Z,26.61
2017-07-05T12:05:05.410Z,26.84
2017-07-05T12:06:06.849Z,27.05
2017-07-05T12:07:08.285Z,27.32
2017-07-05T12:08:09.717Z,27.57
2017-07-05T12:09:11.150Z,27.41
2017-07-05T12:10:12.585Z,27.29
2017-07-05T12:11:14.030Z,27.29
2017-07-05T12:12:15.469Z,27.31
2017-07-05T12:13:16.901Z,26.91
2017-07-05T12:14:18.482Z,26.61
2017-07-05T12:15:19.989Z,26.68
2017-07-05T12:16:21.426Z,26.46
2017-07-05T12:17:22.856Z,26.29
2017-07-05T12:18:24.288Z,26.50
2017-07-05T12:19:25.729Z,26.62
2017-07-05T12:20:27.162Z,26.54
2017-07-05T12:21:28.589Z,26.47
2017-07-05T12:22:30.017Z,26.61
2017-07-05T12:23:31.457Z,26.61
2017-07-05T12:24:32.897Z,26.62
2017-07-05T12:25:34.350Z,26.84
2017-07-05T12:26:35.811Z,26.76
2017-07-05T12:27:37.282Z,26.50
2017-07-05T12:28:38.713Z,26.57
2017-07-05T12:29:40.153Z,26.37
2017-07-05T12:30:41.580Z,26.46
2017-07-05T12:31:43.013Z,26.20
2017-07-05T12:32:44.449Z,26.17
2017-07-05T12:33:45.935Z,26.27
2017-07-05T12:34:47.359Z,26.22
2017-07-05T12:35:48.801Z,26.35
2017-07-05T12:36:50.293Z,26.31
2017-07-05T12:37:51.730Z,26.65
2017-07-05T12:38:53.174Z,26.89
2017-07-05T12:39:54.610Z,26.83
2017-07-05T12:40:56.039Z,27.14
2017-07-05T12:41:57.483Z,26.98
2017-07-05T12:42:58.904Z,26.87
2017-07-05T12:44:00.353Z,26.94
2017-07-05T12:45:01.790Z,26.98
2017-07-05T12:46:03.228Z,27.10
2017-07-05T12:47:04.660Z,27.24
2017-07-05T12:48:06.146Z,26.99
2017-07-05T12:49:07.577Z,26.84
2017-07-05T12:50:09.005Z,26.79
2017-07-05T12:51:10.471Z,26.98
2017-07-05T12:52:11.932Z,27.17
2017-07-05T12:53:13.374Z,27.09
2017-07-05T12:54:14.808Z,27.19
2017-07-05T12:55:16.250Z,27.26
2017-07-05T12:56:17.714Z,27.36
2017-07-05T12:57:19.148Z,27.41
2017-07-05T12:58:20.590Z,27.20
2017-07-05T12:59:22.019Z,26.98
2017-07-05T13:00:23.456Z,26.92
2017-07-05T13:01:24.887Z,26.62
2017-07-05T13:02:26.334Z,26.50
2017-07-05T13:03:27.765Z,26.44
2017-07-05T13:04:29.199Z,26.39
2017-07-05T13:05:30.644Z,26.42
2017-07-05T13:06:32.082Z,26.37
2017-07-05T13:07:33.516Z,26.21
2017-07-05T13:08:34.946Z,26.22
2017-07-05T13:09:36.399Z,26.12
2017-07-05T13:10:37.843Z,26.05